createdAt,value
2019-04-03T00:00:49.706Z,1.43
2019-04-03T00:03:16.776Z,1.23
2019-04-03T00:05:43.839Z,1.40
2019-04-03T00:08:10.924Z,1.20
2019-04-03T00:10:38.393Z,1.10
2019-04-03T00:13:05.483Z,1.30
2019-04-03T00:15:32.555Z,1.00
2019-04-03T00:17:59.629Z,1.23
2019-04-03T00:20:26.701Z,1.23
2019-04-03T00:22:53.779Z,1.20
2019-04-03T00:25:22.329Z,1.17
2019-04-03T00:27:50.797Z,1.43
2019-04-03T00:30:19.134Z,1.13
2019-04-03T00:32:47.530Z,1.10
2019-04-03T00:35:14.707Z,1.40
2019-04-03T00:37:42.880Z,1.00
2019-04-03T00:40:10.076Z,1.20
2019-04-03T00:42:37.273Z,1.20
2019-04-03T00:45:05.074Z,1.07
2019-04-03T00:47:32.241Z,1.40
2019-04-03T00:49:59.347Z,1.40
2019-04-03T00:52:27.593Z,0.97
2019-04-03T00:54:56.588Z,1.00
2019-04-03T00:57:25.913Z,1.40
2019-04-03T00:59:53.181Z,1.27
2019-04-03T01:02:20.257Z,1.30
2019-04-03T01:04:47.394Z,0.90
2019-04-03T01:07:14.595Z,1.20
2019-04-03T01:09:41.650Z,1.37
2019-04-03T01:12:08.733Z,1.23
2019-04-03T01:14:35.808Z,0.93
2019-04-03T01:17:04.370Z,1.27
2019-04-03T01:19:31.804Z,1.20
2019-04-03T01:21:58.872Z,0.47
2019-04-03T01:24:25.949Z,1.20
2019-04-03T01:26:53.063Z,1.10
2019-04-03T01:29:20.134Z,1.20
2019-04-03T01:31:47.214Z,1.37
2019-04-03T01:34:17.119Z,0.80
2019-04-03T01:36:43.512Z,1.20
2019-04-03T01:39:10.563Z,1.30
2019-04-03T01:41:37.632Z,1.10
2019-04-03T01:44:05.739Z,0.90
2019-04-03T01:46:32.807Z,1.07
2019-04-03T01:48:59.985Z,1.07
2019-04-03T01:51:29.125Z,1.30
2019-04-03T01:53:56.050Z,1.30
2019-04-03T01:56:23.160Z,1.33
2019-04-03T01:58:50.279Z,1.20
2019-04-03T02:01:17.349Z,1.10
2019-04-03T02:03:44.599Z,1.13
2019-04-03T02:06:13.429Z,1.33
2019-04-03T02:08:40.791Z,1.30
2019-04-03T02:11:07.871Z,1.20
2019-04-03T02:13:34.947Z,1.17
2019-04-03T02:16:02.172Z,1.13
2019-04-03T02:18:29.425Z,1.80
2019-04-03T02:20:57.665Z,1.30
2019-04-03T02:23:25.253Z,1.20
2019-04-03T02:25:52.341Z,1.37
2019-04-03T02:28:20.119Z,1.23
2019-04-03T02:30:47.377Z,1.30
2019-04-03T02:33:14.520Z,1.10
2019-04-03T02:35:41.592Z,1.50
2019-04-03T02:38:08.678Z,1.57
2019-04-03T02:40:36.046Z,1.57
2019-04-03T02:43:03.582Z,1.80
2019-04-03T02:45:30.731Z,1.83
2019-04-03T02:47:57.782Z,1.23
2019-04-03T02:50:25.630Z,1.40
2019-04-03T02:52:56.928Z,1.40
2019-04-03T02:55:23.793Z,1.43
2019-04-03T02:57:50.871Z,1.47
2019-04-03T03:00:18.142Z,1.67
2019-04-03T03:02:46.117Z,1.13
2019-04-03T03:05:13.515Z,1.50
2019-04-03T03:07:42.016Z,1.50
2019-04-03T03:10:09.396Z,1.83
2019-04-03T03:12:39.140Z,1.43
2019-04-03T03:15:10.641Z,1.30
2019-04-03T03:17:36.315Z,1.17
2019-04-03T03:20:07.539Z,0.90
2019-04-03T03:22:36.569Z,1.60
2019-04-03T03:25:04.768Z,1.47
2019-04-03T03:27:32.929Z,1.13
2019-04-03T03:30:01.157Z,1.40
2019-04-03T03:32:32.534Z,1.40
2019-04-03T03:35:09.565Z,1.23
2019-04-03T03:37:26.711Z,1.17
2019-04-03T03:39:54.455Z,1.27
2019-04-03T03:42:22.961Z,1.50
2019-04-03T03:44:52.188Z,2.13
2019-04-03T03:47:21.392Z,1.60
2019-04-03T03:49:50.132Z,2.00
2019-04-03T03:52:17.740Z,1.50
2019-04-03T03:54:45.326Z,1.80
2019-04-03T03:57:13.209Z,1.60
2019-04-03T03:59:41.102Z,1.53
2019-04-03T04:02:08.277Z,1.80
2019-04-03T04:04:35.549Z,1.90
2019-04-03T04:07:04.518Z,1.77
2019-04-03T04:09:31.887Z,1.77
2019-04-03T04:11:59.160Z,1.40
2019-04-03T04:14:26.415Z,1.77
2019-04-03T04:16:54.707Z,1.70
2019-04-03T04:19:22.209Z,1.90
2019-04-03T04:21:49.696Z,1.90
2019-04-03T04:24:17.156Z,1.70
2019-04-03T04:26:44.313Z,1.77
2019-04-03T04:29:12.117Z,1.87
2019-04-03T04:31:39.315Z,1.90
2019-04-03T04:34:06.545Z,1.70
2019-04-03T04:36:33.639Z,2.07
2019-04-03T04:39:00.706Z,1.53
2019-04-03T04:41:27.802Z,1.70
2019-04-03T04:43:56.834Z,1.50
2019-04-03T04:46:23.998Z,2.00
2019-04-03T04:48:51.752Z,1.90
2019-04-03T04:51:19.548Z,1.97
2019-04-03T04:53:46.635Z,1.80
2019-04-03T04:56:13.695Z,2.23
2019-04-03T04:58:43.585Z,2.00
2019-04-03T05:01:11.141Z,2.50
2019-04-03T05:03:38.430Z,1.73
2019-04-03T05:06:05.657Z,2.27
2019-04-03T05:08:33.562Z,2.20
2019-04-03T05:11:00.765Z,2.07
2019-04-03T05:13:27.907Z,1.60
2019-04-03T05:15:59.684Z,2.07
2019-04-03T05:18:29.295Z,2.10
2019-04-03T05:20:56.019Z,1.90
2019-04-03T05:23:25.671Z,2.40
2019-04-03T05:25:53.393Z,1.67
2019-04-03T05:28:24.656Z,2.23
2019-04-03T05:30:51.126Z,2.60
2019-04-03T05:33:18.316Z,1.30
2019-04-03T05:35:46.240Z,2.10
2019-04-03T05:38:13.747Z,2.20
2019-04-03T05:40:40.820Z,2.60
2019-04-03T05:43:09.726Z,2.07
2019-04-03T05:45:36.822Z,1.87
2019-04-03T05:48:04.289Z,1.03
2019-04-03T05:50:32.345Z,2.50
2019-04-03T05:52:59.619Z,1.33
2019-04-03T05:55:26.704Z,1.63
2019-04-03T05:57:53.810Z,1.47
2019-04-03T06:00:20.885Z,1.23
2019-04-03T06:02:47.975Z,1.43
2019-04-03T06:05:15.426Z,2.40
2019-04-03T06:07:44.176Z,0.20
2019-04-03T06:10:11.561Z,2.00
2019-04-03T06:12:38.747Z,1.80
2019-04-03T06:15:09.064Z,2.20
2019-04-03T06:17:35.142Z,0.90
2019-04-03T06:20:02.704Z,2.07
2019-04-03T06:22:29.817Z,1.73
2019-04-03T06:24:57.139Z,1.87
2019-04-03T06:27:27.175Z,1.17
2019-04-03T06:29:55.286Z,1.53
2019-04-03T06:32:24.361Z,2.30
2019-04-03T06:34:51.255Z,2.60
2019-04-03T06:37:18.345Z,2.17
2019-04-03T06:39:45.717Z,2.40
2019-04-03T06:42:13.285Z,1.83
2019-04-03T06:44:41.118Z,0.70
2019-04-03T06:47:09.979Z,2.40
2019-04-03T06:49:39.790Z,1.60
2019-04-03T06:52:06.142Z,1.97
2019-04-03T06:54:33.217Z,2.40
2019-04-03T06:57:00.396Z,1.53
2019-04-03T06:59:27.476Z,1.70
2019-04-03T07:01:54.826Z,0.50
2019-04-03T07:04:23.860Z,2.60
2019-04-03T07:06:55.187Z,1.50
2019-04-03T07:09:28.673Z,0.60
2019-04-03T07:11:50.233Z,1.13
2019-04-03T07:14:25.695Z,2.73
2019-04-03T07:16:53.567Z,1.70
2019-04-03T07:19:24.212Z,1.03
2019-04-03T07:21:55.181Z,0.80
2019-04-03T07:24:23.321Z,1.83
2019-04-03T07:26:52.480Z,1.30
2019-04-03T07:29:19.703Z,2.10
2019-04-03T07:31:48.255Z,1.13
2019-04-03T07:34:15.649Z,2.00
2019-04-03T07:36:45.625Z,0.83
2019-04-03T07:39:14.391Z,1.73
2019-04-03T07:41:43.105Z,1.40
2019-04-03T07:44:11.356Z,1.20
2019-04-03T07:46:38.486Z,2.30
2019-04-03T07:49:08.853Z,2.13
2019-04-03T07:51:35.657Z,1.50
2019-04-03T07:54:04.733Z,2.27
2019-04-03T07:56:31.866Z,2.10
2019-04-03T07:58:58.973Z,2.40
2019-04-03T08:01:26.330Z,2.93
2019-04-03T08:03:53.502Z,2.17
2019-04-03T08:06:20.615Z,1.87
2019-04-03T08:08:50.398Z,3.10
2019-04-03T08:11:16.699Z,1.90
2019-04-03T08:13:43.791Z,0.80
2019-04-03T08:16:10.874Z,2.60
2019-04-03T08:18:37.939Z,1.80
2019-04-03T08:21:05.023Z,3.07
2019-04-03T08:23:32.127Z,3.07
2019-04-03T08:25:59.203Z,2.57
2019-04-03T08:28:30.144Z,3.00
2019-04-03T08:30:56.400Z,3.70
2019-04-03T08:33:26.624Z,3.70
2019-04-03T08:35:52.475Z,3.40
2019-04-03T08:38:19.559Z,2.03
2019-04-03T08:40:46.884Z,2.50
2019-04-03T08:43:14.248Z,2.87
2019-04-03T08:45:41.347Z,2.70
2019-04-03T08:48:08.409Z,2.20
2019-04-03T08:50:35.587Z,2.37
2019-04-03T08:53:02.774Z,3.03
2019-04-03T08:55:29.864Z,1.90
2019-04-03T08:57:57.471Z,2.53
2019-04-03T09:00:24.704Z,2.73
2019-04-03T09:02:52.919Z,3.17
2019-04-03T09:05:20.273Z,3.27
2019-04-03T09:07:47.664Z,2.70
2019-04-03T09:10:15.158Z,3.57
2019-04-03T09:12:42.231Z,1.30
2019-04-03T09:15:10.143Z,1.20
2019-04-03T09:17:37.201Z,2.97
2019-04-03T09:20:05.979Z,3.20
2019-04-03T09:22:34.849Z,2.13
2019-04-03T09:25:02.245Z,2.00
2019-04-03T09:27:29.433Z,1.13
2019-04-03T09:29:56.536Z,3.20
2019-04-03T09:32:23.630Z,3.23
2019-04-03T09:34:50.718Z,2.90
2019-04-03T09:37:18.404Z,2.90
2019-04-03T09:39:45.965Z,2.70
2019-04-03T09:42:13.694Z,3.23
2019-04-03T09:44:40.815Z,3.00
2019-04-03T09:47:07.861Z,0.70
2019-04-03T09:49:34.939Z,0.50
2019-04-03T09:52:03.239Z,1.43
2019-04-03T09:54:30.405Z,1.50
2019-04-03T09:57:04.446Z,2.83
2019-04-03T09:59:28.250Z,1.40
2019-04-03T10:01:56.525Z,2.67
2019-04-03T10:04:24.156Z,2.97
2019-04-03T10:06:52.854Z,2.17
2019-04-03T10:09:19.959Z,3.40
2019-04-03T10:11:48.734Z,3.63
2019-04-03T10:14:17.462Z,3.60
2019-04-03T10:16:44.611Z,1.80
2019-04-03T10:19:13.549Z,1.33
2019-04-03T10:21:41.015Z,3.47
2019-04-03T10:24:08.169Z,1.90
2019-04-03T10:26:35.230Z,3.40
2019-04-03T10:29:02.678Z,1.70
2019-04-03T10:31:29.889Z,1.73
2019-04-03T10:33:58.274Z,0.73
2019-04-03T10:36:25.348Z,3.53
2019-04-03T10:38:52.433Z,1.80
2019-04-03T10:41:19.616Z,0.97
2019-04-03T10:43:46.687Z,1.90
2019-04-03T10:46:13.776Z,2.63
2019-04-03T10:48:40.904Z,3.10
2019-04-03T10:51:09.282Z,3.50
2019-04-03T10:53:40.917Z,3.07
2019-04-03T10:56:08.521Z,3.13
2019-04-03T10:58:37.933Z,1.80
2019-04-03T11:01:04.564Z,3.40
2019-04-03T11:03:31.705Z,3.47
2019-04-03T11:05:58.737Z,3.20
2019-04-03T11:08:25.963Z,2.73
2019-04-03T11:10:53.225Z,2.43
2019-04-03T11:13:20.334Z,3.17
2019-04-03T11:15:47.469Z,3.70
2019-04-03T11:18:14.959Z,4.00
2019-04-03T11:20:42.723Z,3.70
2019-04-03T11:23:09.798Z,3.17
2019-04-03T11:25:40.789Z,4.20
2019-04-03T11:28:06.538Z,3.90
2019-04-03T11:30:34.288Z,3.90
2019-04-03T11:33:01.484Z,2.50
2019-04-03T11:35:28.684Z,3.30
2019-04-03T11:37:56.195Z,3.40
2019-04-03T11:40:25.037Z,3.27
2019-04-03T11:42:52.625Z,2.00
2019-04-03T11:45:21.697Z,3.90
2019-04-03T11:47:48.771Z,1.70
2019-04-03T11:50:16.871Z,3.70
2019-04-03T11:52:44.316Z,3.93
2019-04-03T11:55:11.749Z,3.13
2019-04-03T11:57:38.826Z,2.17
2019-04-03T12:00:08.979Z,2.33
2019-04-03T12:02:38.291Z,4.53
2019-04-03T12:05:05.576Z,4.10
2019-04-03T12:07:32.671Z,3.33
2019-04-03T12:10:02.776Z,2.73
2019-04-03T12:12:30.584Z,1.20
2019-04-03T12:14:57.726Z,3.80
2019-04-03T12:17:24.802Z,2.77
2019-04-03T12:19:52.115Z,0.90
2019-04-03T12:22:19.890Z,2.63
2019-04-03T12:24:48.563Z,4.00
2019-04-03T12:27:15.756Z,3.70
2019-04-03T12:29:43.197Z,1.00
2019-04-03T12:32:10.521Z,2.47
2019-04-03T12:34:38.137Z,4.00
2019-04-03T12:37:06.007Z,4.50
2019-04-03T12:39:33.127Z,3.00
2019-04-03T12:42:00.452Z,2.20
2019-04-03T12:44:27.692Z,1.30
2019-04-03T12:46:54.720Z,3.93
2019-04-03T12:49:22.852Z,3.13
2019-04-03T12:51:51.549Z,1.10
2019-04-03T12:54:20.595Z,1.93
2019-04-03T12:56:47.720Z,1.63
2019-04-03T12:59:14.969Z,3.67
2019-04-03T13:01:42.203Z,1.53
2019-04-03T13:04:09.316Z,4.07
2019-04-03T13:06:36.796Z,2.80
2019-04-03T13:09:07.615Z,2.87
2019-04-03T13:11:35.082Z,1.53
2019-04-03T13:14:02.668Z,2.23
2019-04-03T13:16:29.884Z,0.90
2019-04-03T13:18:56.948Z,5.30
2019-04-03T13:21:24.344Z,2.50
2019-04-03T13:23:51.842Z,2.20
2019-04-03T13:26:18.899Z,1.17
2019-04-03T13:28:45.968Z,1.13
2019-04-03T13:31:15.796Z,1.53
2019-04-03T13:33:43.166Z,2.30
2019-04-03T13:36:10.595Z,3.10
2019-04-03T13:38:38.128Z,2.30
2019-04-03T13:41:05.776Z,1.97
2019-04-03T13:43:32.923Z,2.97
2019-04-03T13:46:00.202Z,2.97
2019-04-03T13:48:27.630Z,4.00
2019-04-03T13:50:56.627Z,1.63
2019-04-03T13:53:25.572Z,3.30
2019-04-03T13:55:52.723Z,4.57
2019-04-03T13:58:21.172Z,3.70
2019-04-03T14:00:58.642Z,4.40
2019-04-03T14:03:19.024Z,4.00
2019-04-03T14:05:46.457Z,4.57
2019-04-03T14:08:13.710Z,3.40
2019-04-03T14:10:40.829Z,1.63
2019-04-03T14:13:10.749Z,4.40
2019-04-03T14:15:36.986Z,3.07
2019-04-03T14:18:04.128Z,3.50
2019-04-03T14:20:31.227Z,4.00
2019-04-03T14:22:58.698Z,2.90
2019-04-03T14:25:31.376Z,3.00
2019-04-03T14:27:56.094Z,4.97
2019-04-03T14:30:23.383Z,1.80
2019-04-03T14:32:53.406Z,2.73
2019-04-03T14:35:48.114Z,3.53
2019-04-03T14:37:48.805Z,3.13
2019-04-03T14:40:18.918Z,2.13
2019-04-03T14:42:46.348Z,2.53
2019-04-03T14:45:15.132Z,2.50
2019-04-03T14:47:42.838Z,4.83
2019-04-03T14:50:11.242Z,3.40
2019-04-03T14:52:38.466Z,2.23
2019-04-03T14:55:17.175Z,2.80
2019-04-03T14:57:35.003Z,4.60
2019-04-03T15:00:04.714Z,4.20
2019-04-03T15:02:31.311Z,3.00
2019-04-03T15:04:58.665Z,3.67
2019-04-03T15:07:26.374Z,1.57
2019-04-03T15:09:53.467Z,4.97
2019-04-03T15:12:22.348Z,4.20
2019-04-03T15:14:49.451Z,2.37
2019-04-03T15:17:17.018Z,4.90
2019-04-03T15:19:45.305Z,4.50
2019-04-03T15:22:13.262Z,2.60
2019-04-03T15:24:42.665Z,4.07
2019-04-03T15:27:09.926Z,5.23
2019-04-03T15:29:38.791Z,2.87
2019-04-03T15:32:06.261Z,4.40
2019-04-03T15:34:35.671Z,4.07
2019-04-03T15:37:03.103Z,1.03
2019-04-03T15:39:30.276Z,3.93
2019-04-03T15:41:57.355Z,2.27
2019-04-03T15:44:27.366Z,1.43
2019-04-03T15:46:53.939Z,0.63
2019-04-03T15:49:21.244Z,4.47
2019-04-03T15:51:48.391Z,5.10
2019-04-03T15:54:16.122Z,2.20
2019-04-03T15:56:44.889Z,2.10
2019-04-03T15:59:12.749Z,1.70
2019-04-03T16:01:41.416Z,4.67
2019-04-03T16:04:08.510Z,4.63
2019-04-03T16:06:36.580Z,4.27
2019-04-03T16:09:06.905Z,0.73
2019-04-03T16:11:34.023Z,2.10
2019-04-03T16:14:01.413Z,3.93
2019-04-03T16:16:29.356Z,3.83
2019-04-03T16:18:56.631Z,3.30
2019-04-03T16:21:26.251Z,2.27
2019-04-03T16:23:54.319Z,5.67
2019-04-03T16:26:23.798Z,5.03
2019-04-03T16:28:51.798Z,4.63
2019-04-03T16:31:20.544Z,4.50
2019-04-03T16:33:47.939Z,4.97
2019-04-03T16:36:16.552Z,4.63
2019-04-03T16:38:44.008Z,4.80
2019-04-03T16:41:11.770Z,5.30
2019-04-03T16:43:39.256Z,5.30
2019-04-03T16:46:07.963Z,5.63
2019-04-03T16:48:38.487Z,5.33
2019-04-03T16:51:04.626Z,4.90
2019-04-03T16:53:32.171Z,4.37
2019-04-03T16:56:00.042Z,5.13
2019-04-03T16:58:27.989Z,5.10
2019-04-03T17:00:55.105Z,4.40
2019-04-03T17:03:22.539Z,5.17
2019-04-03T17:05:49.634Z,5.20
2019-04-03T17:08:17.224Z,4.40
2019-04-03T17:10:44.262Z,5.23
2019-04-03T17:13:11.414Z,5.43
2019-04-03T17:15:40.737Z,5.23
2019-04-03T17:18:10.608Z,4.57
2019-04-03T17:20:36.957Z,4.33
2019-04-03T17:23:04.140Z,5.37
2019-04-03T17:25:43.923Z,5.50
2019-04-03T17:28:06.093Z,6.10
2019-04-03T17:30:30.209Z,5.43
2019-04-03T17:32:57.722Z,4.73
2019-04-03T17:35:25.296Z,5.20
2019-04-03T17:37:53.628Z,4.87
2019-04-03T17:40:20.770Z,3.13
2019-04-03T17:42:47.983Z,5.03
2019-04-03T17:45:16.219Z,5.00
2019-04-03T17:47:43.595Z,5.10
2019-04-03T17:50:11.038Z,4.73
2019-04-03T17:52:38.114Z,5.03
2019-04-03T17:55:09.519Z,5.10
2019-04-03T17:57:35.690Z,4.23
2019-04-03T18:00:03.781Z,4.03
2019-04-03T18:02:30.909Z,5.50
2019-04-03T18:04:58.049Z,4.80
2019-04-03T18:07:25.160Z,5.50
2019-04-03T18:09:53.927Z,5.17
2019-04-03T18:12:21.949Z,5.00
2019-04-03T18:14:49.226Z,5.13
2019-04-03T18:17:19.130Z,5.80
2019-04-03T18:19:46.394Z,4.63
2019-04-03T18:22:13.503Z,4.87
2019-04-03T18:24:40.592Z,5.07
2019-04-03T18:27:07.690Z,4.80
2019-04-03T18:29:37.299Z,4.43
2019-04-03T18:32:04.012Z,5.10
2019-04-03T18:34:33.124Z,5.53
2019-04-03T18:37:01.849Z,5.07
2019-04-03T18:39:29.460Z,5.17
2019-04-03T18:41:56.566Z,3.97
2019-04-03T18:44:26.030Z,4.77
2019-04-03T18:46:52.791Z,4.30
2019-04-03T18:49:21.227Z,4.67
2019-04-03T18:51:48.323Z,4.77
2019-04-03T18:54:15.433Z,4.60
2019-04-03T18:56:45.615Z,4.47
2019-04-03T18:59:11.563Z,5.03
2019-04-03T19:01:38.643Z,4.70
2019-04-03T19:04:07.270Z,4.60
2019-04-03T19:06:36.760Z,4.33
2019-04-03T19:09:10.058Z,4.37
2019-04-03T19:11:36.410Z,4.17
2019-04-03T19:14:03.725Z,3.93
2019-04-03T19:16:43.301Z,4.87
2019-04-03T19:19:07.967Z,4.93
2019-04-03T19:21:28.976Z,5.33
2019-04-03T19:23:56.129Z,4.20
2019-04-03T19:26:23.317Z,4.43
2019-04-03T19:28:50.533Z,4.43
2019-04-03T19:31:17.625Z,4.50
2019-04-03T19:33:45.537Z,4.67
2019-04-03T19:36:12.865Z,4.60
2019-04-03T19:38:39.938Z,4.70
2019-04-03T19:41:07.020Z,4.57
2019-04-03T19:43:34.132Z,5.10
2019-04-03T19:46:01.235Z,4.50
2019-04-03T19:48:28.340Z,4.70
2019-04-03T19:50:55.422Z,3.83
2019-04-03T19:53:22.509Z,4.80
2019-04-03T19:55:49.603Z,4.77
2019-04-03T19:58:16.669Z,4.60
2019-04-03T20:00:45.980Z,4.37
2019-04-03T20:03:14.228Z,4.40
2019-04-03T20:05:43.919Z,4.47
2019-04-03T20:08:10.723Z,4.40
2019-04-03T20:10:37.847Z,4.10
2019-04-03T20:13:04.942Z,4.97
2019-04-03T20:15:32.200Z,4.57
2019-04-03T20:17:59.302Z,4.63
2019-04-03T20:20:29.346Z,4.57
2019-04-03T20:22:55.425Z,4.70
2019-04-03T20:25:22.559Z,4.00
2019-04-03T20:27:52.456Z,4.40
2019-04-03T20:30:19.694Z,4.07
2019-04-03T20:32:46.772Z,4.30
2019-04-03T20:35:14.050Z,3.70
2019-04-03T20:37:43.806Z,1.73
2019-04-03T20:40:10.468Z,3.93
2019-04-03T20:42:40.757Z,4.20
2019-04-03T20:45:07.081Z,4.17
2019-04-03T20:47:34.152Z,4.37
2019-04-03T20:50:01.521Z,4.93
2019-04-03T20:52:28.810Z,3.80
2019-04-03T20:54:55.901Z,3.57
2019-04-03T20:57:22.991Z,3.67
2019-04-03T20:59:58.505Z,4.10
2019-04-03T21:02:19.612Z,3.90
2019-04-03T21:04:47.341Z,4.40
2019-04-03T21:07:14.667Z,4.20
2019-04-03T21:09:41.834Z,4.80
2019-04-03T21:12:08.907Z,4.50
2019-04-03T21:14:35.981Z,3.63
2019-04-03T21:17:03.242Z,4.00
2019-04-03T21:19:30.343Z,3.73
2019-04-03T21:21:57.705Z,3.50
2019-04-03T21:24:26.410Z,3.97
2019-04-03T21:26:53.484Z,4.00
2019-04-03T21:29:24.182Z,3.30
2019-04-03T21:31:51.305Z,4.07
2019-04-03T21:34:18.381Z,4.00
2019-04-03T21:36:45.979Z,4.40
2019-04-03T21:39:13.507Z,3.53
2019-04-03T21:41:40.660Z,3.83
2019-04-03T21:44:07.730Z,4.47
2019-04-03T21:46:34.798Z,4.30
2019-04-03T21:49:01.876Z,3.93
2019-04-03T21:51:28.969Z,4.30
2019-04-03T21:53:56.614Z,4.07
2019-04-03T21:56:25.541Z,3.93
2019-04-03T21:58:52.629Z,3.40
2019-04-03T22:01:22.349Z,4.10
2019-04-03T22:03:51.492Z,3.70
2019-04-03T22:06:18.590Z,2.73
2019-04-03T22:08:45.783Z,4.70
2019-04-03T22:11:12.870Z,4.10
2019-04-03T22:13:39.929Z,4.77
2019-04-03T22:16:07.006Z,4.40
2019-04-03T22:18:34.080Z,4.53
2019-04-03T22:21:02.009Z,4.03
2019-04-03T22:23:29.658Z,3.60
2019-04-03T22:25:58.941Z,4.43
2019-04-03T22:28:26.052Z,3.80
2019-04-03T22:30:55.870Z,3.97
2019-04-03T22:33:22.940Z,4.37
2019-04-03T22:35:50.028Z,4.47
2019-04-03T22:38:17.094Z,4.30
2019-04-03T22:40:44.181Z,3.90
2019-04-03T22:43:11.267Z,4.20
2019-04-03T22:45:38.332Z,4.10
2019-04-03T22:48:05.404Z,4.40
2019-04-03T22:50:33.484Z,4.17
2019-04-03T22:53:01.650Z,4.50
2019-04-03T22:55:28.719Z,4.33
2019-04-03T22:57:55.787Z,3.37
2019-04-03T23:00:25.495Z,4.50
2019-04-03T23:02:51.939Z,4.43
2019-04-03T23:05:19.023Z,4.17
2019-04-03T23:07:46.123Z,3.90
2019-04-03T23:10:13.207Z,2.80
2019-04-03T23:12:40.283Z,3.50
2019-04-03T23:15:09.432Z,4.00
2019-04-03T23:17:36.569Z,4.10
2019-04-03T23:20:03.981Z,3.60
2019-04-03T23:22:31.047Z,2.40
2019-04-03T23:24:59.524Z,4.03
2019-04-03T23:27:27.090Z,4.10
2019-04-03T23:29:54.176Z,4.20
2019-04-03T23:32:21.257Z,3.67
2019-04-03T23:34:49.568Z,4.60
2019-04-03T23:37:17.183Z,4.67
2019-04-03T23:39:44.275Z,4.20
2019-04-03T23:42:11.345Z,4.13
2019-04-03T23:44:41.830Z,4.33
2019-04-03T23:47:07.369Z,4.47
2019-04-03T23:49:34.446Z,4.70
2019-04-03T23:52:01.516Z,4.63
2019-04-03T23:54:28.567Z,4.77
2019-04-03T23:56:55.634Z,4.47
2019-04-03T23:59:22.708Z,4.60
